createdAt,value
2023-01-25T00:01:23.996Z,17.88
2023-01-25T00:03:26.974Z,17.60
2023-01-25T00:05:30.053Z,17.95
2023-01-25T00:07:34.608Z,18.92
2023-01-25T00:09:37.746Z,17.98
2023-01-25T00:11:40.997Z,17.58
2023-01-25T00:13:44.134Z,18.08
2023-01-25T00:15:47.068Z,17.02
2023-01-25T00:17:51.330Z,18.70
2023-01-25T00:19:54.289Z,17.40
2023-01-25T00:21:57.267Z,17.58
2023-01-25T00:24:01.960Z,18.38
2023-01-25T00:26:05.188Z,19.40
2023-01-25T00:28:08.248Z,17.10
2023-01-25T00:30:12.252Z,19.23
2023-01-25T00:32:49.481Z,18.73
2023-01-25T00:34:52.605Z,18.55
2023-01-25T00:36:57.965Z,16.88
2023-01-25T00:39:02.344Z,17.85
2023-01-25T00:41:05.651Z,17.38
2023-01-25T00:43:09.999Z,18.15
2023-01-25T00:45:13.335Z,17.17
2023-01-25T00:47:16.773Z,17.77
2023-01-25T00:49:22.580Z,17.58
2023-01-25T00:51:26.196Z,18.40
2023-01-25T00:53:29.272Z,18.55
2023-01-25T00:55:33.928Z,17.23
2023-01-25T00:57:36.867Z,17.92
2023-01-25T00:59:44.326Z,17.17
2023-01-25T01:01:47.288Z,16.02
2023-01-25T01:03:52.380Z,19.05
2023-01-25T01:06:01.634Z,17.27
2023-01-25T01:08:04.924Z,18.27
2023-01-25T01:10:08.913Z,17.80
2023-01-25T01:12:13.261Z,16.30
2023-01-25T01:14:16.496Z,16.90
2023-01-25T01:16:19.569Z,16.92
2023-01-25T01:18:22.721Z,19.00
2023-01-25T01:20:25.631Z,16.98
2023-01-25T01:22:31.391Z,18.35
2023-01-25T01:24:34.390Z,16.77
2023-01-25T01:26:39.373Z,17.80
2023-01-25T01:28:43.843Z,18.65
2023-01-25T01:30:46.907Z,17.50
2023-01-25T01:32:51.398Z,16.02
2023-01-25T01:34:54.794Z,16.98
2023-01-25T01:36:57.714Z,18.02
2023-01-25T01:39:00.875Z,16.45
2023-01-25T01:41:04.133Z,16.98
2023-01-25T01:43:13.560Z,15.65
2023-01-25T01:45:53.036Z,17.42
2023-01-25T01:48:02.015Z,14.10
2023-01-25T01:50:09.682Z,15.95
2023-01-25T01:52:16.241Z,17.63
2023-01-25T01:54:22.141Z,14.48
2023-01-25T01:56:30.620Z,14.73
2023-01-25T01:58:37.591Z,13.93
2023-01-25T02:00:41.824Z,13.23
2023-01-25T02:02:46.627Z,14.43
2023-01-25T02:04:50.698Z,13.73
2023-01-25T02:06:57.295Z,11.80
2023-01-25T02:09:01.834Z,13.10
2023-01-25T02:11:05.736Z,17.23
2023-01-25T02:13:08.770Z,13.80
2023-01-25T02:15:12.274Z,14.52
2023-01-25T02:17:15.280Z,13.55
2023-01-25T02:19:28.278Z,16.88
2023-01-25T02:21:37.230Z,12.98
2023-01-25T02:23:48.481Z,13.13
2023-01-25T02:25:52.887Z,12.27
2023-01-25T02:27:57.711Z,12.27
2023-01-25T02:30:02.182Z,11.88
2023-01-25T02:32:06.828Z,12.40
2023-01-25T02:34:09.810Z,14.65
2023-01-25T02:36:22.367Z,12.00
2023-01-25T02:38:25.387Z,12.60
2023-01-25T02:40:31.854Z,11.93
2023-01-25T02:42:36.246Z,12.60
2023-01-25T02:44:43.317Z,12.68
2023-01-25T02:46:47.919Z,12.75
2023-01-25T02:48:51.014Z,11.70
2023-01-25T02:50:54.034Z,11.95
2023-01-25T02:52:57.046Z,12.43
2023-01-25T02:54:59.977Z,13.18
2023-01-25T02:57:03.497Z,12.77
2023-01-25T02:59:19.315Z,12.57
2023-01-25T03:01:27.065Z,12.73
2023-01-25T03:03:30.688Z,13.57
2023-01-25T03:05:34.005Z,11.30
2023-01-25T03:07:37.121Z,11.70
2023-01-25T03:09:40.262Z,11.93
2023-01-25T03:11:43.243Z,11.57
2023-01-25T03:13:48.008Z,11.60
2023-01-25T03:15:52.403Z,10.90
2023-01-25T03:17:56.700Z,10.63
2023-01-25T03:19:59.797Z,10.40
2023-01-25T03:22:02.810Z,10.48
2023-01-25T03:24:08.272Z,11.50
2023-01-25T03:26:17.178Z,11.73
2023-01-25T03:28:40.452Z,10.50
2023-01-25T03:30:43.479Z,11.02
2023-01-25T03:32:48.564Z,10.50
2023-01-25T03:34:55.282Z,9.30
2023-01-25T03:36:58.287Z,8.90
2023-01-25T03:39:03.439Z,8.63
2023-01-25T03:41:08.011Z,9.05
2023-01-25T03:43:11.462Z,9.73
2023-01-25T03:45:15.181Z,10.60
2023-01-25T03:47:18.555Z,17.50
2023-01-25T03:49:23.211Z,14.13
2023-01-25T03:51:27.320Z,9.90
2023-01-25T03:53:32.915Z,8.88
2023-01-25T03:55:46.360Z,9.25
2023-01-25T03:57:49.892Z,8.70
2023-01-25T03:59:53.199Z,8.82
2023-01-25T04:01:56.787Z,9.35
2023-01-25T04:03:59.798Z,8.75
2023-01-25T04:06:04.453Z,9.57
2023-01-25T04:08:08.356Z,9.18
2023-01-25T04:10:15.324Z,9.30
2023-01-25T04:12:21.847Z,10.30
2023-01-25T04:14:42.505Z,8.50
2023-01-25T04:16:47.977Z,9.20
2023-01-25T04:19:11.263Z,9.45
2023-01-25T04:21:16.784Z,9.13
2023-01-25T04:23:19.988Z,8.50
2023-01-25T04:25:23.112Z,7.70
2023-01-25T04:27:29.513Z,6.93
2023-01-25T04:29:41.378Z,8.00
2023-01-25T04:31:49.047Z,7.55
2023-01-25T04:33:52.383Z,7.10
2023-01-25T04:35:56.446Z,7.07
2023-01-25T04:38:02.179Z,7.22
2023-01-25T04:40:14.639Z,7.70
2023-01-25T04:42:21.382Z,6.00
2023-01-25T04:44:28.399Z,6.00
2023-01-25T04:46:31.484Z,6.18
2023-01-25T04:48:34.468Z,6.03
2023-01-25T04:50:41.739Z,6.05
2023-01-25T04:52:45.765Z,6.55
2023-01-25T04:54:50.259Z,6.80
2023-01-25T04:56:53.740Z,6.70
2023-01-25T04:58:56.921Z,6.80
2023-01-25T05:01:01.914Z,7.10
2023-01-25T05:03:05.317Z,8.48
2023-01-25T05:05:09.751Z,6.40
2023-01-25T05:07:13.092Z,7.03
2023-01-25T05:09:17.607Z,8.05
2023-01-25T05:11:23.246Z,6.80
2023-01-25T05:13:31.859Z,7.28
2023-01-25T05:15:44.854Z,6.30
2023-01-25T05:17:47.868Z,6.93
2023-01-25T05:19:50.916Z,6.45
2023-01-25T05:21:59.507Z,5.85
2023-01-25T05:24:17.654Z,7.25
2023-01-25T05:26:41.711Z,6.95
2023-01-25T05:28:44.712Z,6.70
2023-01-25T05:31:17.099Z,6.10
2023-01-25T05:33:20.359Z,6.97
2023-01-25T05:35:23.397Z,6.65
2023-01-25T05:37:30.043Z,6.95
2023-01-25T05:39:38.131Z,7.07
2023-01-25T05:41:42.401Z,6.53
2023-01-25T05:43:45.564Z,6.85
2023-01-25T05:45:53.610Z,6.95
2023-01-25T05:47:57.774Z,6.43
2023-01-25T05:50:01.053Z,7.00
2023-01-25T05:52:17.215Z,6.57
2023-01-25T05:54:20.387Z,7.32
2023-01-25T05:56:32.851Z,8.95
2023-01-25T05:58:37.473Z,7.28
2023-01-25T06:00:40.412Z,7.13
2023-01-25T06:02:43.800Z,7.10
2023-01-25T06:04:51.859Z,7.65
2023-01-25T06:06:54.968Z,6.65
2023-01-25T06:08:58.915Z,7.18
2023-01-25T06:11:07.742Z,7.40
2023-01-25T06:13:11.152Z,7.30
2023-01-25T06:15:15.597Z,6.20
2023-01-25T06:17:18.808Z,7.35
2023-01-25T06:19:36.135Z,6.43
2023-01-25T06:21:57.847Z,6.85
2023-01-25T06:24:00.904Z,7.20
2023-01-25T06:26:07.058Z,11.50
2023-01-25T06:28:10.333Z,8.13
2023-01-25T06:30:15.154Z,7.55
2023-01-25T06:32:18.229Z,7.20
2023-01-25T06:34:21.474Z,10.90
2023-01-25T06:36:24.798Z,7.47
2023-01-25T06:38:27.766Z,7.15
2023-01-25T06:40:30.733Z,6.70
2023-01-25T06:42:33.729Z,8.27
2023-01-25T06:44:36.712Z,7.70
2023-01-25T06:46:41.076Z,8.48
2023-01-25T06:48:44.040Z,7.53
2023-01-25T06:50:47.019Z,8.38
2023-01-25T06:52:53.841Z,6.65
2023-01-25T06:54:56.842Z,7.15
2023-01-25T06:56:59.802Z,8.75
2023-01-25T06:59:02.730Z,8.60
2023-01-25T07:01:06.992Z,7.28
2023-01-25T07:03:11.338Z,7.75
2023-01-25T07:05:14.459Z,7.60
2023-01-25T07:07:17.475Z,7.43
2023-01-25T07:09:24.068Z,7.90
2023-01-25T07:11:27.604Z,7.93
2023-01-25T07:13:32.937Z,8.27
2023-01-25T07:15:35.923Z,7.97
2023-01-25T07:17:39.001Z,9.15
2023-01-25T07:19:43.271Z,8.27
2023-01-25T07:21:47.076Z,7.72
2023-01-25T07:23:50.165Z,7.63
2023-01-25T07:25:53.127Z,7.78
2023-01-25T07:27:56.133Z,8.45
2023-01-25T07:29:59.787Z,8.90
2023-01-25T07:32:03.452Z,7.95
2023-01-25T07:34:07.145Z,7.90
2023-01-25T07:36:12.249Z,7.97
2023-01-25T07:38:15.657Z,6.93
2023-01-25T07:40:19.706Z,7.70
2023-01-25T07:42:22.707Z,8.48
2023-01-25T07:44:42.607Z,8.23
2023-01-25T07:46:48.797Z,8.75
2023-01-25T07:48:53.173Z,7.93
2023-01-25T07:51:12.489Z,8.27
2023-01-25T07:53:17.168Z,7.30
2023-01-25T07:55:20.118Z,9.35
2023-01-25T07:57:23.193Z,8.10
2023-01-25T07:59:27.119Z,8.45
2023-01-25T08:01:32.088Z,8.48
2023-01-25T08:03:35.101Z,8.23
2023-01-25T08:05:39.500Z,8.63
2023-01-25T08:07:43.341Z,8.18
2023-01-25T08:09:47.773Z,8.25
2023-01-25T08:11:52.634Z,10.02
2023-01-25T08:13:56.245Z,9.75
2023-01-25T08:15:59.512Z,15.75
2023-01-25T08:18:02.839Z,9.32
2023-01-25T08:20:07.535Z,8.30
2023-01-25T08:22:10.587Z,9.13
2023-01-25T08:24:15.236Z,9.05
2023-01-25T08:26:21.040Z,9.15
2023-01-25T08:28:24.178Z,8.45
2023-01-25T08:30:27.158Z,9.73
2023-01-25T08:32:30.259Z,8.15
2023-01-25T08:34:33.355Z,9.15
2023-01-25T08:36:36.381Z,10.15
2023-01-25T08:38:39.723Z,9.95
2023-01-25T08:40:42.719Z,9.85
2023-01-25T08:42:47.034Z,10.57
2023-01-25T08:44:50.037Z,14.35
2023-01-25T08:46:53.135Z,9.57
2023-01-25T08:48:57.240Z,10.48
2023-01-25T08:51:00.661Z,10.13
2023-01-25T08:53:03.605Z,10.70
2023-01-25T08:55:07.567Z,10.18
2023-01-25T08:57:10.595Z,9.93
2023-01-25T08:59:15.077Z,9.30
2023-01-25T09:01:19.133Z,10.05
2023-01-25T09:03:22.153Z,10.30
2023-01-25T09:05:25.174Z,9.60
2023-01-25T09:07:28.155Z,9.52
2023-01-25T09:09:31.170Z,8.77
2023-01-25T09:11:36.932Z,11.00
2023-01-25T09:13:43.353Z,14.80
2023-01-25T09:15:47.701Z,13.15
2023-01-25T09:17:52.085Z,9.52
2023-01-25T09:19:55.146Z,12.60
2023-01-25T09:21:58.259Z,14.55
2023-01-25T09:24:06.375Z,10.50
2023-01-25T09:26:11.438Z,11.82
2023-01-25T09:28:14.558Z,20.80
2023-01-25T09:30:19.274Z,13.98
2023-01-25T09:32:28.539Z,15.25
2023-01-25T09:34:31.550Z,14.50
2023-01-25T09:36:34.561Z,11.18
2023-01-25T09:38:37.646Z,14.93
2023-01-25T09:40:42.668Z,10.27
2023-01-25T09:42:53.335Z,13.73
2023-01-25T09:45:25.118Z,18.17
2023-01-25T09:47:32.080Z,10.75
2023-01-25T09:49:59.383Z,19.33
2023-01-25T09:52:15.810Z,13.20
2023-01-25T09:54:20.757Z,10.57
2023-01-25T09:56:26.952Z,11.23
2023-01-25T09:58:34.333Z,11.50
2023-01-25T10:00:40.665Z,12.23
2023-01-25T10:02:48.847Z,11.20
2023-01-25T10:04:53.033Z,11.45
2023-01-25T10:07:01.573Z,10.15
2023-01-25T10:09:17.384Z,10.63
2023-01-25T10:11:23.349Z,10.52
2023-01-25T10:13:31.586Z,11.52
2023-01-25T10:15:39.147Z,16.30
2023-01-25T10:17:42.716Z,13.43
2023-01-25T10:19:55.616Z,11.73
2023-01-25T10:22:02.345Z,11.27
2023-01-25T10:24:20.432Z,17.40
2023-01-25T10:26:26.639Z,18.98
2023-01-25T10:28:38.853Z,11.23
2023-01-25T10:30:48.068Z,10.45
2023-01-25T10:32:56.144Z,15.90
2023-01-25T10:35:13.840Z,22.95
2023-01-25T10:37:21.311Z,12.88
2023-01-25T10:39:25.072Z,10.13
2023-01-25T10:41:32.651Z,11.57
2023-01-25T10:43:35.696Z,11.77
2023-01-25T10:45:39.272Z,12.15
2023-01-25T10:47:44.044Z,12.15
2023-01-25T10:49:48.659Z,12.80
2023-01-25T10:51:53.051Z,10.88
2023-01-25T10:54:01.579Z,11.68
2023-01-25T10:56:22.679Z,13.18
2023-01-25T10:58:37.057Z,15.57
2023-01-25T11:00:42.271Z,13.20
2023-01-25T11:02:47.101Z,20.83
2023-01-25T11:04:50.217Z,18.50
2023-01-25T11:06:54.659Z,21.27
2023-01-25T11:08:57.648Z,12.85
2023-01-25T11:11:01.195Z,12.38
2023-01-25T11:13:23.739Z,11.60
2023-01-25T11:15:27.024Z,11.43
2023-01-25T11:17:32.227Z,12.13
2023-01-25T11:19:37.449Z,12.00
2023-01-25T11:21:54.049Z,12.15
2023-01-25T11:24:38.879Z,12.90
2023-01-25T11:26:50.867Z,16.98
2023-01-25T11:29:08.594Z,13.02
2023-01-25T11:31:14.036Z,11.65
2023-01-25T11:33:18.850Z,13.15
2023-01-25T11:35:26.754Z,13.52
2023-01-25T11:41:24.324Z,11.57
2023-01-25T11:43:43.657Z,12.18
2023-01-25T11:46:01.733Z,13.15
2023-01-25T11:48:14.748Z,13.68
2023-01-25T11:50:23.030Z,12.77
2023-01-25T11:52:32.562Z,15.95
2023-01-25T11:54:43.397Z,13.60
2023-01-25T11:56:54.353Z,18.15
2023-01-25T11:59:10.733Z,17.30
2023-01-25T12:01:20.162Z,17.45
2023-01-25T12:03:39.042Z,13.32
2023-01-25T12:05:51.479Z,13.43
2023-01-25T12:08:04.301Z,13.93
2023-01-25T12:10:21.340Z,14.02
2023-01-25T12:12:32.963Z,13.02
2023-01-25T12:14:47.881Z,12.55
2023-01-25T12:17:08.367Z,13.48
2023-01-25T12:19:36.413Z,14.20
2023-01-25T12:21:51.863Z,13.02
2023-01-25T12:24:05.820Z,13.05
2023-01-25T12:26:19.716Z,13.23
2023-01-25T12:28:26.807Z,16.00
2023-01-25T12:30:39.169Z,13.70
2023-01-25T12:32:46.189Z,13.57
2023-01-25T12:34:52.395Z,13.63
2023-01-25T12:36:56.066Z,14.25
2023-01-25T12:39:02.162Z,13.70
2023-01-25T12:41:09.413Z,15.48
2023-01-25T12:43:16.916Z,14.38
2023-01-25T12:45:23.911Z,13.35
2023-01-25T12:47:36.107Z,14.52
2023-01-25T12:49:43.163Z,14.13
2023-01-25T12:51:47.045Z,13.93
2023-01-25T12:53:51.904Z,13.65
2023-01-25T12:55:55.523Z,13.48
2023-01-25T12:58:03.181Z,13.00
2023-01-25T13:00:17.059Z,13.45
2023-01-25T13:02:51.748Z,13.85
2023-01-25T13:05:02.110Z,12.60
2023-01-25T13:07:12.016Z,12.32
2023-01-25T13:09:17.765Z,12.85
2023-01-25T13:11:23.148Z,12.90
2023-01-25T13:13:27.529Z,14.95
2023-01-25T13:15:41.998Z,12.88
2023-01-25T13:17:46.362Z,13.68
2023-01-25T13:19:49.837Z,13.75
2023-01-25T13:21:56.626Z,14.82
2023-01-25T13:24:17.692Z,12.85
2023-01-25T13:26:54.384Z,13.10
2023-01-25T13:28:58.258Z,13.43
2023-01-25T13:31:01.675Z,14.30
2023-01-25T13:33:09.966Z,14.98
2023-01-25T13:35:34.001Z,14.25
2023-01-25T13:37:37.473Z,14.50
2023-01-25T13:39:47.998Z,14.32
2023-01-25T13:42:00.779Z,13.30
2023-01-25T13:44:21.977Z,15.88
2023-01-25T13:46:25.876Z,13.95
2023-01-25T13:48:31.020Z,14.75
2023-01-25T13:50:36.353Z,15.07
2023-01-25T13:52:39.550Z,14.90
2023-01-25T13:54:46.113Z,14.35
2023-01-25T13:56:49.148Z,14.05
2023-01-25T13:58:52.239Z,13.07
2023-01-25T14:00:56.778Z,12.73
2023-01-25T14:02:59.975Z,16.50
2023-01-25T14:05:08.090Z,16.20
2023-01-25T14:07:15.761Z,16.63
2023-01-25T14:09:21.730Z,21.17
2023-01-25T14:11:27.353Z,16.60
2023-01-25T14:13:30.486Z,13.13
2023-01-25T14:15:34.411Z,18.65
2023-01-25T14:17:37.530Z,19.27
2023-01-25T14:19:41.754Z,16.60
2023-01-25T14:21:46.177Z,16.00
2023-01-25T14:23:49.900Z,15.63
2023-01-25T14:25:53.958Z,21.38
2023-01-25T14:27:58.511Z,18.40
2023-01-25T14:30:01.970Z,17.45
2023-01-25T14:32:05.687Z,17.02
2023-01-25T14:34:18.218Z,20.00
2023-01-25T14:36:25.677Z,18.38
2023-01-25T14:38:32.228Z,16.05
2023-01-25T14:40:35.311Z,14.57
2023-01-25T14:42:38.448Z,15.50
2023-01-25T14:44:41.842Z,18.95
2023-01-25T14:46:46.587Z,15.35
2023-01-25T14:48:49.692Z,18.02
2023-01-25T14:50:52.765Z,14.90
2023-01-25T14:52:55.970Z,15.23
2023-01-25T14:55:01.172Z,14.60
2023-01-25T14:57:05.884Z,14.80
2023-01-25T14:59:22.220Z,16.17
2023-01-25T15:01:33.706Z,15.10
2023-01-25T15:03:44.748Z,17.42
2023-01-25T15:05:48.604Z,15.25
2023-01-25T15:07:53.484Z,14.98
2023-01-25T15:10:05.654Z,14.98
2023-01-25T15:12:28.958Z,14.82
2023-01-25T15:14:32.614Z,14.68
2023-01-25T15:16:36.233Z,14.68
2023-01-25T15:18:46.232Z,15.68
2023-01-25T15:20:49.677Z,16.92
2023-01-25T15:22:52.824Z,15.77
2023-01-25T15:24:58.556Z,14.95
2023-01-25T15:27:03.425Z,14.38
2023-01-25T15:29:13.619Z,15.82
2023-01-25T15:31:19.087Z,17.60
2023-01-25T15:33:23.927Z,15.48
2023-01-25T15:35:27.798Z,15.38
2023-01-25T15:37:30.814Z,15.07
2023-01-25T15:39:34.958Z,14.80
2023-01-25T15:41:38.093Z,15.82
2023-01-25T15:43:43.150Z,15.50
2023-01-25T15:45:48.468Z,16.38
2023-01-25T15:47:51.537Z,15.70
2023-01-25T15:49:54.579Z,14.90
2023-01-25T15:51:57.990Z,15.48
2023-01-25T15:54:01.235Z,33.58
2023-01-25T15:56:07.026Z,15.65
2023-01-25T15:58:12.321Z,15.73
2023-01-25T16:00:23.131Z,15.75
2023-01-25T16:02:27.373Z,13.30
2023-01-25T16:04:30.431Z,14.35
2023-01-25T16:06:38.283Z,15.27
2023-01-25T16:08:41.399Z,13.73
2023-01-25T16:10:44.615Z,13.05
2023-01-25T16:12:47.730Z,13.70
2023-01-25T16:14:50.811Z,13.63
2023-01-25T16:16:55.619Z,14.55
2023-01-25T16:18:58.642Z,13.63
2023-01-25T16:21:01.908Z,13.55
2023-01-25T16:23:04.991Z,14.77
2023-01-25T16:25:09.311Z,13.10
2023-01-25T16:27:20.515Z,13.10
2023-01-25T16:29:23.971Z,15.43
2023-01-25T16:31:32.909Z,14.25
2023-01-25T16:33:37.867Z,13.73
2023-01-25T16:35:40.883Z,13.02
2023-01-25T16:37:44.063Z,14.27
2023-01-25T16:39:47.121Z,15.02
2023-01-25T16:41:50.565Z,13.95
2023-01-25T16:43:53.599Z,14.88
2023-01-25T16:45:57.909Z,16.10
2023-01-25T16:48:01.893Z,15.55
2023-01-25T16:50:13.518Z,14.45
2023-01-25T16:52:16.610Z,14.82
2023-01-25T16:54:20.828Z,14.32
2023-01-25T16:56:25.021Z,16.60
2023-01-25T16:58:28.050Z,14.23
2023-01-25T17:00:31.033Z,14.23
2023-01-25T17:02:34.095Z,14.27
2023-01-25T17:04:37.148Z,15.35
2023-01-25T17:06:43.840Z,16.58
2023-01-25T17:08:47.188Z,15.43
2023-01-25T17:10:50.571Z,15.88
2023-01-25T17:12:53.564Z,17.55
2023-01-25T17:14:59.481Z,15.55
2023-01-25T17:17:05.235Z,15.68
2023-01-25T17:19:11.590Z,15.82
2023-01-25T17:21:16.799Z,17.10
2023-01-25T17:23:22.501Z,22.17
2023-01-25T17:25:26.260Z,16.45
2023-01-25T17:27:29.349Z,16.00
2023-01-25T17:29:32.642Z,16.52
2023-01-25T17:31:36.408Z,16.52
2023-01-25T17:33:39.508Z,16.10
2023-01-25T17:35:42.509Z,16.05
2023-01-25T17:37:45.654Z,16.45
2023-01-25T17:39:50.024Z,16.48
2023-01-25T17:41:53.118Z,16.83
2023-01-25T17:43:56.230Z,15.50
2023-01-25T17:45:59.649Z,16.00
2023-01-25T17:48:03.188Z,15.10
2023-01-25T17:50:07.160Z,16.60
2023-01-25T17:52:10.337Z,17.77
2023-01-25T17:54:14.055Z,21.27
2023-01-25T17:56:19.202Z,33.20
2023-01-25T17:58:22.203Z,18.88
2023-01-25T18:00:25.516Z,17.20
2023-01-25T18:02:28.598Z,17.75
2023-01-25T18:04:31.817Z,16.08
2023-01-25T18:06:35.141Z,16.15
2023-01-25T18:08:40.242Z,17.90
2023-01-25T18:10:43.288Z,15.82
2023-01-25T18:13:03.770Z,18.60
2023-01-25T18:15:09.251Z,18.52
2023-01-25T18:17:12.609Z,16.65
2023-01-25T18:19:15.813Z,18.17
2023-01-25T18:21:24.082Z,17.80
2023-01-25T18:23:27.147Z,16.08
2023-01-25T18:25:33.748Z,17.08
2023-01-25T18:27:36.797Z,20.98
2023-01-25T18:29:50.676Z,29.02
2023-01-25T18:31:54.065Z,25.90
2023-01-25T18:33:58.227Z,23.77
2023-01-25T18:36:03.876Z,20.70
2023-01-25T18:38:07.043Z,17.55
2023-01-25T18:40:11.693Z,17.42
2023-01-25T18:42:14.784Z,15.18
2023-01-25T18:44:18.485Z,18.10
2023-01-25T18:46:22.982Z,20.27
2023-01-25T18:48:30.397Z,19.45
2023-01-25T18:50:33.737Z,21.23
2023-01-25T18:52:37.228Z,16.33
2023-01-25T18:54:40.362Z,18.75
2023-01-25T18:56:43.367Z,17.50
2023-01-25T18:58:46.589Z,17.00
2023-01-25T19:00:49.642Z,17.90
2023-01-25T19:02:54.189Z,19.13
2023-01-25T19:04:57.205Z,19.45
2023-01-25T19:07:01.664Z,17.67
2023-01-25T19:09:05.058Z,19.15
2023-01-25T19:11:09.885Z,25.17
2023-01-25T19:13:12.976Z,23.88
2023-01-25T19:15:16.450Z,20.98
2023-01-25T19:17:19.642Z,23.30
2023-01-25T19:19:24.399Z,20.75
2023-01-25T19:21:28.876Z,22.02
2023-01-25T19:23:34.839Z,22.10
2023-01-25T19:25:37.994Z,21.88
2023-01-25T19:27:41.276Z,24.00
2023-01-25T19:29:44.309Z,21.38
2023-01-25T19:31:47.430Z,19.50
2023-01-25T19:33:55.280Z,18.45
2023-01-25T19:36:05.291Z,18.75
2023-01-25T19:38:08.495Z,17.77
2023-01-25T19:40:13.356Z,17.40
2023-01-25T19:42:18.564Z,18.05
2023-01-25T19:44:22.074Z,15.80
2023-01-25T19:46:27.265Z,20.45
2023-01-25T19:48:32.303Z,17.48
2023-01-25T19:50:35.415Z,20.73
2023-01-25T19:52:39.886Z,19.48
2023-01-25T19:54:43.069Z,18.67
2023-01-25T19:56:47.569Z,17.90
2023-01-25T19:58:53.014Z,18.20
2023-01-25T20:00:56.331Z,20.08
2023-01-25T20:03:14.883Z,18.77
2023-01-25T20:05:19.193Z,17.20
2023-01-25T20:07:22.331Z,15.55
2023-01-25T20:09:28.417Z,15.80
2023-01-25T20:11:33.313Z,15.75
2023-01-25T20:13:36.649Z,15.52
2023-01-25T20:15:39.933Z,16.95
2023-01-25T20:17:43.607Z,17.23
2023-01-25T20:19:46.754Z,14.82
2023-01-25T20:21:50.183Z,17.67
2023-01-25T20:23:56.066Z,16.15
2023-01-25T20:26:02.650Z,16.38
2023-01-25T20:28:05.987Z,14.57
2023-01-25T20:30:10.308Z,13.57
2023-01-25T20:32:30.714Z,12.93
2023-01-25T20:34:35.308Z,13.25
2023-01-25T20:36:38.761Z,12.65
2023-01-25T20:38:42.495Z,12.85
2023-01-25T20:40:45.521Z,12.80
2023-01-25T20:42:50.220Z,11.55
2023-01-25T20:44:53.813Z,12.77
2023-01-25T20:46:57.046Z,13.60
2023-01-25T20:49:00.378Z,14.48
2023-01-25T20:51:05.020Z,14.82
2023-01-25T20:53:08.192Z,14.15
2023-01-25T20:55:11.654Z,13.25
2023-01-25T20:57:14.904Z,13.93
2023-01-25T20:59:19.737Z,13.40
2023-01-25T21:01:24.278Z,14.05
2023-01-25T21:03:29.818Z,12.02
2023-01-25T21:05:33.047Z,13.20
2023-01-25T21:07:36.056Z,13.40
2023-01-25T21:09:40.323Z,12.50
2023-01-25T21:11:44.515Z,12.60
2023-01-25T21:13:48.828Z,12.45
2023-01-25T21:16:04.685Z,11.68
2023-01-25T21:18:07.834Z,11.82
2023-01-25T21:20:11.903Z,13.45
2023-01-25T21:22:14.849Z,12.70
2023-01-25T21:24:18.098Z,12.20
2023-01-25T21:26:22.974Z,12.90
2023-01-25T21:28:25.946Z,12.70
2023-01-25T21:30:29.392Z,12.25
2023-01-25T21:32:33.827Z,12.05
2023-01-25T21:34:36.923Z,12.23
2023-01-25T21:36:40.102Z,11.98
2023-01-25T21:38:43.961Z,11.65
2023-01-25T21:40:47.107Z,12.05
2023-01-25T21:42:50.029Z,11.88
2023-01-25T21:45:10.983Z,12.77
2023-01-25T21:47:29.365Z,11.85
2023-01-25T21:49:52.281Z,13.40
2023-01-25T21:51:56.824Z,13.38
2023-01-25T21:54:00.191Z,13.07
2023-01-25T21:56:03.145Z,13.80
2023-01-25T21:58:06.150Z,13.20
2023-01-25T22:00:10.836Z,14.00
2023-01-25T22:02:15.248Z,14.90
2023-01-25T22:04:19.284Z,14.10
2023-01-25T22:06:23.848Z,15.55
2023-01-25T22:08:26.855Z,14.63
2023-01-25T22:10:29.938Z,14.40
2023-01-25T22:12:33.479Z,13.93
2023-01-25T22:14:36.707Z,13.57
2023-01-25T22:16:39.736Z,16.27
2023-01-25T22:18:43.533Z,15.88
2023-01-25T22:20:46.510Z,15.27
2023-01-25T22:22:50.864Z,14.32
2023-01-25T22:24:53.998Z,14.43
2023-01-25T22:27:00.244Z,15.00
2023-01-25T22:29:03.399Z,14.95
2023-01-25T22:31:06.915Z,17.83
2023-01-25T22:33:10.012Z,17.30
2023-01-25T22:35:13.024Z,15.40
2023-01-25T22:37:16.076Z,14.52
2023-01-25T22:39:20.424Z,14.15
2023-01-25T22:41:25.813Z,15.05
2023-01-25T22:43:28.773Z,14.68
2023-01-25T22:45:31.823Z,17.25
2023-01-25T22:47:34.992Z,16.45
2023-01-25T22:49:37.974Z,15.30
2023-01-25T22:51:40.972Z,15.90
2023-01-25T22:53:43.971Z,15.85
2023-01-25T22:55:48.381Z,16.38
2023-01-25T22:57:51.341Z,15.07
2023-01-25T22:59:54.363Z,16.10
2023-01-25T23:01:57.317Z,15.70
2023-01-25T23:04:01.442Z,16.98
2023-01-25T23:06:06.704Z,17.65
2023-01-25T23:08:09.708Z,17.30
2023-01-25T23:10:12.873Z,16.35
2023-01-25T23:12:17.380Z,16.80
2023-01-25T23:14:37.654Z,14.50
2023-01-25T23:16:40.677Z,15.18
2023-01-25T23:18:51.790Z,15.30
2023-01-25T23:20:55.138Z,15.30
2023-01-25T23:22:58.193Z,13.35
2023-01-25T23:25:01.286Z,15.60
2023-01-25T23:27:04.276Z,15.20
2023-01-25T23:29:11.303Z,15.43
2023-01-25T23:31:18.195Z,16.27
2023-01-25T23:33:21.296Z,16.05
2023-01-25T23:35:24.596Z,13.90
2023-01-25T23:37:27.875Z,15.43
2023-01-25T23:39:30.874Z,15.68
2023-01-25T23:41:33.961Z,16.65
2023-01-25T23:43:37.565Z,15.60
2023-01-25T23:45:44.537Z,15.60
2023-01-25T23:47:47.578Z,16.65
2023-01-25T23:49:50.644Z,15.20
2023-01-25T23:51:53.645Z,15.80
2023-01-25T23:53:58.264Z,17.38
2023-01-25T23:56:02.860Z,18.20
2023-01-25T23:58:05.950Z,17.25
